Time;durP1;ratioP1;P1;durP2;ratioP2;P2;SDS_P1;SDS_P2;PMS_P1;PMS_P2;Temp;Humidity;BMP_temperature;BMP_pressure;BME280_temperature;BME280_humidity;BME280_pressure;Samples;Min_cycle;Max_cycle;Signal;HPM_P1;HPM_P2
2022/06/13 00:00:14;;;;;;;11.02;2.67;;;;;;;14.74;67.99;99737.75;5070881;28;20070;-56
2022/06/13 00:02:39;;;;;;;8.70;2.60;;;;;;;14.69;67.09;99731.50;5069979;28;20040;-56
2022/06/13 00:05:06;;;;;;;7.90;2.60;;;;;;;14.59;67.13;99732.22;5069796;28;20044;-56
2022/06/13 00:07:32;;;;;;;5.65;2.35;;;;;;;14.57;66.39;99726.25;5064672;28;20103;-55
2022/06/13 00:09:57;;;;;;;6.47;2.60;;;;;;;14.58;66.94;99727.91;5071393;28;20081;-56
2022/06/13 00:12:23;;;;;;;12.02;2.47;;;;;;;14.52;67.03;99736.97;5053194;28;20082;-56
2022/06/13 00:14:49;;;;;;;9.93;2.63;;;;;;;14.45;67.98;99737.16;5070737;28;20025;-56
2022/06/13 00:17:14;;;;;;;8.18;2.63;;;;;;;14.44;68.39;99739.06;5070190;28;20066;-56
2022/06/13 00:19:39;;;;;;;9.18;2.55;;;;;;;14.27;68.84;99732.97;5069073;28;20313;-56
2022/06/13 00:22:05;;;;;;;9.23;2.67;;;;;;;14.28;69.13;99731.06;5070248;28;20028;-56
2022/06/13 00:24:31;;;;;;;7.72;2.65;;;;;;;14.20;69.47;99743.97;5068638;28;20066;-55
2022/06/13 00:26:56;;;;;;;8.35;2.65;;;;;;;13.90;69.85;99741.72;5071379;28;20056;-56
2022/06/13 00:29:22;;;;;;;10.23;2.83;;;;;;;13.99;69.37;99732.13;5069956;28;20029;-56
2022/06/13 00:31:47;;;;;;;9.43;2.97;;;;;;;13.87;70.22;99739.53;5068651;28;20036;-56
2022/06/13 00:34:13;;;;;;;9.18;2.95;;;;;;;13.86;69.82;99729.84;5070291;28;20029;-57
2022/06/13 00:36:38;;;;;;;7.05;2.58;;;;;;;13.77;70.20;99740.22;5070232;28;20033;-55
2022/06/13 00:39:04;;;;;;;8.77;2.67;;;;;;;13.57;71.43;99740.78;5069885;28;20028;-57
2022/06/13 00:41:32;;;;;;;8.07;2.67;;;;;;;13.48;72.11;99744.16;5070211;28;20033;-56
2022/06/13 00:43:58;;;;;;;7.43;2.58;;;;;;;13.42;72.79;99745.97;5070669;28;20029;-56
2022/06/13 00:46:29;;;;;;;7.15;2.58;;;;;;;13.20;72.86;99743.19;5070159;28;20063;-56
2022/06/13 00:49:00;;;;;;;9.57;2.78;;;;;;;13.21;72.77;99746.72;5070167;28;20020;-56
2022/06/13 00:51:25;;;;;;;8.55;2.67;;;;;;;13.30;73.09;99750.63;5052093;28;20063;-56
2022/06/13 00:53:51;;;;;;;6.78;2.75;;;;;;;13.34;75.03;99754.47;5050176;28;20025;-56
2022/06/13 00:56:18;;;;;;;6.53;2.75;;;;;;;13.42;74.17;99751.34;5069893;28;20047;-56
2022/06/13 00:58:48;;;;;;;9.73;2.47;;;;;;;13.43;74.11;99760.22;5046593;28;20390;-56
2022/06/13 01:01:13;;;;;;;13.73;3.22;;;;;;;13.17;73.29;99749.88;5065791;28;20039;-56
2022/06/13 01:03:38;;;;;;;7.15;2.97;;;;;;;12.93;74.08;99738.50;5050670;28;20168;-56
2022/06/13 01:06:04;;;;;;;7.22;2.42;;;;;;;12.93;74.05;99751.16;5043492;28;20039;-55
2022/06/13 01:08:31;;;;;;;10.45;2.90;;;;;;;12.93;75.05;99748.47;5070876;28;20052;-56
2022/06/13 01:11:17;;;;;;;7.70;3.00;;;;;;;12.83;74.49;99729.44;5068471;28;20017;-56
2022/06/13 01:14:20;;;;;;;5.97;2.53;;;;;;;12.88;76.44;99737.59;5042850;28;20353;-56
2022/06/13 01:16:51;;;;;;;6.80;2.80;;;;;;;12.79;74.11;99728.31;5068864;28;20028;-57
2022/06/13 01:19:53;;;;;;;10.35;3.08;;;;;;;12.97;73.64;99729.94;5063178;28;20025;-56
2022/06/13 01:22:53;;;;;;;5.55;2.63;;;;;;;12.94;73.12;99723.97;5070061;28;20058;-57
2022/06/13 01:25:46;;;;;;;9.82;2.97;;;;;;;13.17;72.06;99722.97;5064680;28;20475;-55
2022/06/13 01:28:33;;;;;;;9.65;3.13;;;;;;;13.22;72.07;99733.00;5063643;28;20036;-56
2022/06/13 01:31:04;;;;;;;9.82;2.78;;;;;;;13.29;71.39;99727.47;5039307;28;20037;-56
2022/06/13 01:34:01;;;;;;;11.48;2.90;;;;;;;13.31;70.98;99731.56;5070249;28;20032;-55
2022/06/13 01:36:31;;;;;;;8.48;2.75;;;;;;;13.38;71.27;99734.09;5042355;28;20055;-55
2022/06/13 01:39:07;;;;;;;8.65;2.88;;;;;;;13.26;72.07;99733.34;5026395;28;20030;-56
2022/06/13 01:41:39;;;;;;;14.68;3.38;;;;;;;13.21;71.93;99735.97;5064732;28;20611;-54
2022/06/13 01:44:04;;;;;;;7.75;2.78;;;;;;;13.15;71.62;99733.19;5069411;28;20032;-56
2022/06/13 01:46:35;;;;;;;5.97;3.15;;;;;;;13.02;71.94;99728.13;5068659;28;20033;-56
2022/06/13 01:49:46;;;;;;;7.00;2.70;;;;;;;12.99;72.47;99720.56;5067700;28;20348;-55
2022/06/13 01:52:20;;;;;;;7.35;3.35;;;;;;;13.11;72.29;99726.66;5063914;28;20043;-55
2022/06/13 01:55:04;;;;;;;8.85;3.10;;;;;;;13.12;71.95;99722.91;5046006;28;20031;-54
2022/06/13 01:57:39;;;;;;;9.75;2.92;;;;;;;12.94;72.55;99710.53;5046398;28;20032;-57
2022/06/13 02:00:10;;;;;;;9.52;2.78;;;;;;;12.61;73.90;99705.97;5041191;28;20694;-57
2022/06/13 02:02:48;;;;;;;5.93;3.15;;;;;;;12.43;74.70;99714.25;5038864;28;20512;-55
2022/06/13 02:05:16;;;;;;;8.75;3.05;;;;;;;12.36;75.14;99708.25;5051447;28;20033;-58
2022/06/13 02:07:46;;;;;;;8.50;2.75;;;;;;;12.21;75.94;99706.91;5051167;28;20029;-58
2022/06/13 02:10:21;;;;;;;6.90;2.75;;;;;;;12.12;76.52;99707.53;5043479;28;20042;-55
2022/06/13 02:12:51;;;;;;;9.35;3.20;;;;;;;12.04;76.90;99708.75;5020597;28;20467;-56
2022/06/13 02:15:41;;;;;;;8.90;3.05;;;;;;;12.08;76.90;99709.88;5066694;28;20509;-55
2022/06/13 02:18:14;;;;;;;7.05;2.85;;;;;;;11.93;78.00;99710.44;5057875;28;20082;-55
2022/06/13 02:20:42;;;;;;;10.48;3.30;;;;;;;12.12;76.78;99704.84;5033303;28;20111;-56
2022/06/13 02:23:18;;;;;;;9.43;3.67;;;;;;;12.17;76.93;99719.19;5037599;28;20029;-56
2022/06/13 02:25:47;;;;;;;8.75;3.47;;;;;;;11.86;80.34;99725.84;5050775;28;20056;-55
2022/06/13 02:28:18;;;;;;;7.57;3.10;;;;;;;11.55;80.14;99713.66;5059886;28;20042;-56
2022/06/13 02:30:51;;;;;;;8.07;3.03;;;;;;;11.65;80.33;99724.59;5049838;28;20028;-56
2022/06/13 02:33:28;;;;;;;6.80;3.28;;;;;;;11.70;80.07;99726.56;5058855;28;20088;-55
2022/06/13 02:35:59;;;;;;;8.93;3.38;;;;;;;11.44;80.13;99724.19;5020560;28;20112;-55
2022/06/13 02:38:31;;;;;;;5.55;3.20;;;;;;;11.50;79.11;99726.97;5066857;28;20120;-56
2022/06/13 02:41:03;;;;;;;9.15;3.22;;;;;;;11.40;79.07;99723.00;5026181;28;20434;-55
2022/06/13 02:43:32;;;;;;;10.68;3.22;;;;;;;11.40;79.39;99723.00;5048820;28;20028;-55
2022/06/13 02:46:03;;;;;;;7.40;3.80;;;;;;;11.48;79.04;99723.69;5040308;28;20356;-56
2022/06/13 02:48:58;;;;;;;9.65;3.30;;;;;;;11.46;78.67;99726.63;5023278;28;20029;-56
2022/06/13 02:51:40;;;;;;;8.75;3.08;;;;;;;11.34;79.37;99732.00;5045228;28;20086;-56
2022/06/13 02:54:09;;;;;;;11.13;3.17;;;;;;;11.37;80.31;99738.78;5062725;28;20029;-56
2022/06/13 02:56:37;;;;;;;10.70;3.40;;;;;;;11.32;80.16;99746.72;5052145;28;20490;-57
2022/06/13 02:59:30;;;;;;;11.02;3.47;;;;;;;10.98;81.13;99741.09;5066802;28;20576;-55
2022/06/13 03:01:55;;;;;;;10.85;3.72;;;;;;;11.14;80.94;99739.59;5034541;28;20059;-56
2022/06/13 03:04:26;;;;;;;8.27;3.90;;;;;;;11.21;81.52;99746.50;5044819;28;20024;-55
2022/06/13 03:07:01;;;;;;;11.15;3.45;;;;;;;11.01;81.58;99751.38;5068053;28;20024;-57
2022/06/13 03:09:46;;;;;;;7.75;3.40;;;;;;;11.01;81.62;99748.72;5066793;28;20583;-57
2022/06/13 03:12:41;;;;;;;10.18;3.25;;;;;;;11.00;81.87;99753.22;5044294;28;20017;-55
2022/06/13 03:15:18;;;;;;;16.75;3.80;;;;;;;11.11;81.37;99745.44;5065771;28;20033;-57
2022/06/13 03:18:09;;;;;;;9.77;3.72;;;;;;;11.08;81.81;99751.25;5034245;28;20364;-55
2022/06/13 03:20:41;;;;;;;9.82;3.72;;;;;;;11.15;81.40;99760.00;5031791;28;20029;-57
2022/06/13 03:23:21;;;;;;;9.75;3.80;;;;;;;11.10;81.47;99749.97;5036024;28;20095;-57
2022/06/13 03:26:05;;;;;;;14.53;3.60;;;;;;;10.86;82.23;99749.16;5067715;28;20037;-55
2022/06/13 03:28:35;;;;;;;9.65;3.42;;;;;;;10.97;82.94;99751.03;5033736;28;20286;-56
2022/06/13 03:31:03;;;;;;;8.18;4.10;;;;;;;10.99;81.92;99759.66;5034435;28;20031;-57
2022/06/13 03:33:40;;;;;;;12.38;3.97;;;;;;;10.99;82.21;99758.84;5045157;28;20092;-57
2022/06/13 03:36:23;;;;;;;14.35;3.72;;;;;;;11.23;81.13;99767.69;5032117;28;20033;-57
2022/06/13 03:39:05;;;;;;;10.82;3.70;;;;;;;11.65;80.77;99770.25;5030605;28;20526;-56
2022/06/13 03:41:32;;;;;;;9.48;3.38;;;;;;;11.38;80.22;99773.44;5067571;28;20448;-56
2022/06/13 03:44:01;;;;;;;11.25;3.97;;;;;;;10.64;83.32;99766.84;5035785;28;20027;-56
2022/06/13 03:46:32;;;;;;;12.05;3.50;;;;;;;10.27;85.20;99772.28;5049032;28;20502;-56
2022/06/13 03:49:02;;;;;;;10.32;3.55;;;;;;;10.16;86.05;99779.22;5024728;28;20112;-56
2022/06/13 03:51:38;;;;;;;10.23;3.53;;;;;;;10.25;86.02;99783.22;5038151;28;20029;-56
2022/06/13 03:54:19;;;;;;;8.57;3.85;;;;;;;10.29;85.93;99783.63;5058109;28;20024;-55
2022/06/13 03:56:46;;;;;;;12.68;4.20;;;;;;;11.23;83.26;99786.47;5067175;28;20024;-56
2022/06/13 03:59:15;;;;;;;11.63;4.13;;;;;;;12.89;75.19;99782.28;5054652;28;20024;-57
2022/06/13 04:01:47;;;;;;;11.27;3.60;;;;;;;13.39;71.59;99786.84;5038076;28;20037;-57
2022/06/13 04:04:17;;;;;;;10.48;3.58;;;;;;;12.88;73.10;99781.47;5067192;28;20457;-57
2022/06/13 04:06:43;;;;;;;9.48;3.50;;;;;;;13.37;72.80;99773.63;5067140;28;20036;-54
2022/06/13 04:09:20;;;;;;;10.15;3.90;;;;;;;12.46;74.96;99775.63;5067942;28;20040;-56
2022/06/13 04:12:07;;;;;;;9.35;3.55;;;;;;;13.22;72.61;99780.63;5068519;28;20017;-56
2022/06/13 04:14:40;;;;;;;11.65;3.25;;;;;;;15.57;65.48;99787.72;5067128;28;20025;-57
2022/06/13 04:17:22;;;;;;;11.52;3.45;;;;;;;17.55;58.88;99788.38;5066211;28;20479;-56
2022/06/13 04:20:07;;;;;;;8.43;3.38;;;;;;;16.73;58.48;99777.59;5041472;28;20036;-56
2022/06/13 04:22:40;;;;;;;8.60;3.10;;;;;;;16.79;59.76;99787.34;5036539;28;20036;-56
2022/06/13 04:25:33;;;;;;;7.15;3.15;;;;;;;18.47;56.56;99785.28;5025290;28;20369;-55
2022/06/13 04:28:19;;;;;;;8.68;2.97;;;;;;;18.25;54.48;99780.28;5062101;28;20027;-57
2022/06/13 04:30:44;;;;;;;7.45;3.13;;;;;;;17.48;56.53;99790.56;5054525;28;20499;-55
2022/06/13 04:33:21;;;;;;;9.65;3.35;;;;;;;17.70;56.16;99791.06;5048963;28;20035;-55
2022/06/13 04:35:47;;;;;;;13.00;3.53;;;;;;;18.49;54.12;99785.81;5052536;28;20040;-55
2022/06/13 04:38:14;;;;;;;12.00;3.50;;;;;;;19.62;51.68;99796.59;5042892;28;20569;-55
2022/06/13 04:40:42;;;;;;;7.93;2.83;;;;;;;19.52;52.10;99797.50;5023722;28;20021;-56
2022/06/13 04:43:08;;;;;;;8.65;2.90;;;;;;;19.41;52.08;99795.97;5051179;28;20028;-56
2022/06/13 04:45:57;;;;;;;9.25;3.13;;;;;;;20.32;49.54;99790.59;5021860;28;20043;-57
2022/06/13 04:48:22;;;;;;;9.07;3.40;;;;;;;20.00;50.35;99797.53;5040103;28;20028;-56
2022/06/13 04:50:49;;;;;;;10.38;3.30;;;;;;;19.84;51.24;99782.47;5071589;28;20024;-56
2022/06/13 04:53:24;;;;;;;9.35;3.40;;;;;;;19.42;51.82;99784.03;5054948;28;20027;-56
2022/06/13 04:55:51;;;;;;;7.68;3.40;;;;;;;19.63;50.77;99776.44;5047584;28;20123;-56
2022/06/13 04:58:34;;;;;;;10.00;3.53;;;;;;;20.19;50.47;99788.56;5069749;28;20031;-56
2022/06/13 05:01:05;;;;;;;9.93;3.25;;;;;;;19.38;52.15;99791.91;5033123;28;20078;-56
2022/06/13 05:03:36;;;;;;;10.38;3.25;;;;;;;19.95;50.84;99794.88;5044844;28;20153;-55
2022/06/13 05:06:04;;;;;;;10.43;3.15;;;;;;;19.63;51.84;99798.19;5069341;28;20051;-56
2022/06/13 05:08:32;;;;;;;8.93;3.38;;;;;;;20.80;48.77;99804.06;5070131;28;20045;-56
2022/06/13 05:11:06;;;;;;;9.27;3.08;;;;;;;22.44;45.50;99822.88;5042369;28;20112;-56
2022/06/13 05:13:32;;;;;;;11.02;3.17;;;;;;;22.03;46.02;99820.97;5070298;28;20056;-56
2022/06/13 05:16:37;;;;;;;9.30;3.30;;;;;;;23.56;42.55;99821.28;5050727;28;20323;-56
2022/06/13 05:19:36;;;;;;;12.45;3.30;;;;;;;23.56;42.19;99821.28;5068582;28;20032;-57
2022/06/13 05:22:14;;;;;;;9.27;3.20;;;;;;;22.17;44.74;99824.50;5070418;28;20025;-56
2022/06/13 05:24:45;;;;;;;9.07;3.15;;;;;;;23.51;42.01;99826.88;5068836;28;20032;-56
2022/06/13 05:27:11;;;;;;;7.28;3.60;;;;;;;22.88;43.09;99824.06;5069560;28;20060;-56
2022/06/13 05:29:36;;;;;;;12.15;3.70;;;;;;;23.20;42.37;99827.69;5069148;28;20063;-56
2022/06/13 05:32:05;;;;;;;9.23;3.38;;;;;;;23.13;42.81;99828.13;5069231;28;20521;-56
2022/06/13 05:34:33;;;;;;;10.13;3.57;;;;;;;23.81;41.23;99828.84;5041090;28;20021;-56
2022/06/13 05:36:59;;;;;;;9.93;3.25;;;;;;;24.43;40.12;99833.34;5052365;28;20044;-56
2022/06/13 05:39:24;;;;;;;8.43;3.40;;;;;;;24.59;39.59;99828.25;5067854;28;20041;-57
2022/06/13 05:41:49;;;;;;;8.77;3.40;;;;;;;25.39;38.57;99830.63;5069196;28;20032;-56
2022/06/13 05:44:15;;;;;;;8.68;3.20;;;;;;;25.06;38.92;99831.13;5060313;28;20378;-56
2022/06/13 05:46:40;;;;;;;10.05;3.50;;;;;;;25.56;38.15;99838.78;5067854;28;20032;-56
2022/06/13 05:49:06;;;;;;;9.52;3.10;;;;;;;23.39;42.43;99832.97;5069263;28;20016;-56
2022/06/13 05:51:31;;;;;;;8.07;3.15;;;;;;;24.39;40.86;99845.25;5035350;28;20156;-56
2022/06/13 05:53:57;;;;;;;11.82;3.72;;;;;;;23.78;41.40;99854.09;5070475;28;20027;-56
2022/06/13 05:56:24;;;;;;;12.27;3.80;;;;;;;24.37;41.32;99853.00;5069905;28;20517;-56
2022/06/13 05:58:49;;;;;;;11.65;3.55;;;;;;;25.24;39.20;99858.56;5042545;28;20341;-56
2022/06/13 06:01:15;;;;;;;8.95;3.50;;;;;;;25.47;38.78;99846.25;5069576;28;20029;-56
2022/06/13 06:03:41;;;;;;;8.85;3.72;;;;;;;26.10;36.73;99851.19;5069986;28;20025;-56
2022/06/13 06:06:06;;;;;;;12.45;3.58;;;;;;;26.96;35.17;99849.00;5068203;28;20471;-56
2022/06/13 06:08:35;;;;;;;10.75;3.38;;;;;;;26.37;36.52;99858.16;5067731;28;20056;-56
2022/06/13 06:11:00;;;;;;;11.40;3.35;;;;;;;26.60;35.47;99858.66;5043404;28;20455;-56
2022/06/13 06:13:26;;;;;;;14.60;3.80;;;;;;;26.35;36.75;99850.22;5068917;28;20033;-56
2022/06/13 06:15:52;;;;;;;12.93;3.38;;;;;;;26.69;35.57;99853.91;5067915;28;20025;-56
2022/06/13 06:18:18;;;;;;;11.65;3.50;;;;;;;25.08;38.08;99842.56;5068236;28;20024;-56
2022/06/13 06:20:44;;;;;;;11.07;3.55;;;;;;;26.16;36.40;99844.34;5068709;28;20032;-55
2022/06/13 06:23:10;;;;;;;11.20;3.85;;;;;;;25.97;35.89;99842.84;5067663;28;20131;-56
2022/06/13 06:25:36;;;;;;;11.73;3.60;;;;;;;26.65;35.42;99850.22;5068470;28;20230;-56
2022/06/13 06:28:01;;;;;;;13.27;4.05;;;;;;;26.78;35.32;99848.34;5050390;28;20020;-56
2022/06/13 06:30:27;;;;;;;14.98;3.80;;;;;;;23.64;41.22;99848.69;5067090;28;20394;-56
2022/06/13 06:32:56;;;;;;;13.15;4.28;;;;;;;24.19;39.88;99849.41;5038886;28;20465;-56
2022/06/13 06:35:22;;;;;;;11.88;4.00;;;;;;;24.15;40.09;99845.69;5067850;28;20435;-56
2022/06/13 06:37:49;;;;;;;12.27;4.15;;;;;;;24.75;39.34;99847.75;5028456;28;20090;-56
2022/06/13 06:40:15;;;;;;;11.85;4.22;;;;;;;25.19;38.20;99848.56;5067996;28;20021;-56
2022/06/13 06:42:41;;;;;;;11.57;3.85;;;;;;;23.62;39.11;99847.41;5050511;28;20078;-56
2022/06/13 06:45:07;;;;;;;14.82;4.32;;;;;;;22.64;42.20;99837.19;5066437;28;20474;-56
2022/06/13 06:47:33;;;;;;;13.00;4.10;;;;;;;26.76;35.67;99843.19;5068106;28;20039;-56
2022/06/13 06:49:58;;;;;;;13.13;4.10;;;;;;;26.37;36.27;99842.47;5067701;28;20024;-56
2022/06/13 06:52:24;;;;;;;14.07;3.80;;;;;;;28.27;33.70;99835.38;5069470;28;20017;-56
2022/06/13 07:00:19;;;;;;;15.35;3.70;;;;;;;26.21;36.57;99830.47;5067076;28;20539;-56
2022/06/13 07:02:44;;;;;;;10.02;3.47;;;;;;;25.70;37.42;99832.28;5068145;28;20040;-56
2022/06/13 07:05:09;;;;;;;12.13;3.97;;;;;;;26.12;37.10;99837.94;5067327;28;20102;-56
2022/06/13 07:07:35;;;;;;;12.43;3.88;;;;;;;27.31;34.82;99833.81;5069062;28;20099;-56
2022/06/13 07:10:01;;;;;;;15.10;3.83;;;;;;;27.58;33.14;99837.03;5067229;28;20097;-56
2022/06/13 07:12:26;;;;;;;12.30;3.53;;;;;;;28.84;32.06;99833.53;5066703;28;20044;-56
2022/06/13 07:14:52;;;;;;;12.65;3.47;;;;;;;28.04;33.52;99837.81;5067507;28;20036;-56
2022/06/13 07:17:17;;;;;;;12.20;3.15;;;;;;;28.79;32.62;99850.34;5067487;28;20081;-56
2022/06/13 07:19:46;;;;;;;11.15;3.40;;;;;;;28.65;32.90;99844.41;5066975;28;20031;-56
2022/06/13 07:22:12;;;;;;;;;;;;;;;29.03;31.98;99839.22;5070609;28;20025;-56
2022/06/13 07:24:37;;;;;;;12.25;3.55;;;;;;;27.43;34.19;99840.47;5066471;28;20491;-55
2022/06/13 07:27:03;;;;;;;9.60;3.42;;;;;;;26.23;37.15;99848.22;5067635;28;20025;-55
2022/06/13 07:29:29;;;;;;;9.20;3.22;;;;;;;26.68;36.06;99849.53;5049416;28;20028;-56
2022/06/13 07:31:57;;;;;;;14.73;4.22;;;;;;;25.37;37.81;99844.66;5068490;28;20021;-56
2022/06/13 07:34:23;;;;;;;;;;;;;;;26.42;36.09;99855.22;5038349;28;20082;-56
2022/06/13 07:36:50;;;;;;;12.15;3.20;;;;;;;25.66;37.64;99850.53;5068523;28;20020;-56
2022/06/13 07:39:15;;;;;;;10.90;3.47;;;;;;;27.35;34.68;99855.13;5033932;28;20641;-56
2022/06/13 07:41:41;;;;;;;10.43;3.00;;;;;;;27.96;34.42;99852.50;5067325;28;20029;-56
2022/06/13 07:44:07;;;;;;;8.80;2.95;;;;;;;27.11;35.18;99846.44;5067854;28;20028;-56
2022/06/13 07:46:32;;;;;;;12.23;3.25;;;;;;;28.00;33.15;99858.13;5018668;28;20114;-56
2022/06/13 07:48:58;;;;;;;9.43;3.30;;;;;;;27.23;34.00;99855.88;5044609;28;20024;-56
2022/06/13 07:51:23;;;;;;;15.73;3.65;;;;;;;28.75;32.61;99860.47;5048723;28;20028;-56
2022/06/13 07:53:49;;;;;;;10.77;3.40;;;;;;;29.18;31.88;99864.47;5066932;28;20024;-56
2022/06/13 07:56:17;;;;;;;11.00;3.17;;;;;;;27.09;33.96;99856.97;5066021;28;20043;-55
2022/06/13 07:58:43;;;;;;;8.97;2.93;;;;;;;25.16;35.85;99850.03;5066285;28;20028;-55
2022/06/13 08:01:10;;;;;;;9.18;2.80;;;;;;;25.81;35.21;99844.53;5025782;28;20837;-55
2022/06/13 08:03:35;;;;;;;10.20;3.25;;;;;;;26.33;34.58;99848.94;5031984;28;20067;-56
2022/06/13 08:06:01;;;;;;;10.55;3.22;;;;;;;28.57;30.94;99855.22;5039198;28;20021;-56
2022/06/13 08:08:26;;;;;;;10.10;3.22;;;;;;;28.48;30.05;99857.34;5052155;28;20045;-56
2022/06/13 08:10:52;;;;;;;10.25;3.00;;;;;;;25.89;33.96;99846.44;5069946;28;20653;-56
2022/06/13 08:13:18;;;;;;;12.02;3.40;;;;;;;28.75;30.77;99857.72;5069500;28;20406;-56
2022/06/13 08:15:44;;;;;;;9.70;2.97;;;;;;;25.49;34.51;99854.97;5039420;28;20121;-56
2022/06/13 08:18:10;;;;;;;9.93;3.13;;;;;;;24.32;36.71;99857.50;5070744;28;20506;-56
2022/06/13 08:20:35;;;;;;;12.82;3.00;;;;;;;23.20;37.89;99850.38;5053924;28;20398;-56
2022/06/13 08:23:03;;;;;;;10.10;3.35;;;;;;;22.95;38.98;99859.97;5042671;28;20025;-56
2022/06/13 08:25:30;;;;;;;10.52;3.38;;;;;;;23.27;39.20;99871.00;5068048;28;20418;-56
2022/06/13 08:27:59;;;;;;;7.07;3.13;;;;;;;22.73;40.23;99868.13;5036818;28;20442;-56
2022/06/13 08:30:26;;;;;;;11.23;2.90;;;;;;;21.73;40.46;99864.13;5065627;28;20075;-55
2022/06/13 08:32:51;;;;;;;9.90;3.20;;;;;;;21.60;42.04;99867.63;5053112;28;20024;-56
2022/06/13 08:35:17;;;;;;;14.65;3.33;;;;;;;21.34;43.32;99867.22;5070641;28;20471;-54
2022/06/13 08:37:42;;;;;;;9.20;3.20;;;;;;;21.35;43.76;99868.88;5069626;28;20095;-56
2022/06/13 08:40:09;;;;;;;11.38;3.42;;;;;;;20.56;45.21;99861.34;5070544;28;20029;-55
2022/06/13 08:42:37;;;;;;;10.60;3.50;;;;;;;19.79;48.36;99866.84;5042896;28;20183;-57
2022/06/13 08:45:39;;;;;;;11.95;3.55;;;;;;;20.06;47.83;99865.47;5069283;28;20039;-57
2022/06/13 08:48:11;;;;;;;24.42;4.38;;;;;;;23.12;42.35;99875.72;5009707;28;20043;-57
2022/06/13 08:50:46;;;;;;;10.02;3.28;;;;;;;21.22;45.89;99875.88;5025257;28;20095;-56
2022/06/13 08:53:16;;;;;;;8.98;3.10;;;;;;;21.86;44.11;99878.06;5051303;28;20055;-57
2022/06/13 08:55:55;;;;;;;10.82;3.30;;;;;;;21.64;43.88;99870.56;5052952;28;20024;-56
2022/06/13 08:58:29;;;;;;;7.73;2.97;;;;;;;21.84;43.55;99875.66;5036463;28;20020;-57
2022/06/13 09:00:58;;;;;;;7.78;3.25;;;;;;;22.01;43.16;99875.06;5069711;28;20284;-57
2022/06/13 09:03:29;;;;;;;15.05;3.28;;;;;;;22.77;41.38;99880.06;5046547;28;20031;-57
2022/06/13 09:06:01;;;;;;;12.70;3.50;;;;;;;22.85;41.18;99878.53;5035548;28;20052;-57
2022/06/13 09:08:48;;;;;;;19.35;4.18;;;;;;;25.15;36.68;99867.56;5035794;28;20041;-57
2022/06/13 09:11:21;;;;;;;9.30;3.50;;;;;;;23.31;40.19;99872.78;5065732;28;20771;-57
2022/06/13 09:14:31;;;;;;;13.90;3.38;;;;;;;25.06;37.13;99879.66;5041308;28;20017;-56
2022/06/13 09:17:16;;;;;;;8.50;3.20;;;;;;;25.78;35.82;99867.13;4968145;28;20516;-56
2022/06/13 09:19:55;;;;;;;9.63;3.28;;;;;;;23.63;39.22;99885.38;5056919;28;20399;-56
2022/06/13 09:22:36;;;;;;;12.45;3.22;;;;;;;24.03;38.92;99877.22;5030650;28;20407;-56
2022/06/13 09:25:19;;;;;;;10.88;3.58;;;;;;;23.37;40.47;99881.69;5058459;28;20050;-56
2022/06/13 09:28:14;;;;;;;15.18;3.50;;;;;;;23.47;39.55;99884.16;5059870;28;20075;-56
2022/06/13 09:31:13;;;;;;;8.50;2.85;;;;;;;23.85;39.47;99889.22;5063785;28;20360;-57
2022/06/13 09:33:42;;;;;;;23.90;3.72;;;;;;;23.29;40.93;99890.63;5050809;28;20036;-56
2022/06/13 09:36:34;;;;;;;16.70;4.10;;;;;;;22.94;41.47;99896.63;5068131;28;20016;-57
2022/06/13 09:39:04;;;;;;;9.45;3.33;;;;;;;22.25;43.29;99901.38;5068818;28;20090;-57
2022/06/13 09:42:02;;;;;;;12.52;3.65;;;;;;;20.87;47.69;99912.69;5069445;28;20025;-56
2022/06/13 09:44:34;;;;;;;11.07;3.60;;;;;;;19.73;50.61;99911.53;5049554;28;20051;-56
2022/06/13 09:47:25;;;;;;;10.00;3.58;;;;;;;19.94;51.19;99901.25;5039500;28;20021;-56
2022/06/13 09:50:13;;;;;;;12.38;3.30;;;;;;;20.09;50.47;99908.44;5020164;28;20680;-56
2022/06/13 09:52:56;;;;;;;6.90;3.22;;;;;;;20.13;49.82;99907.56;5045816;28;20078;-56
2022/06/13 09:55:33;;;;;;;10.25;3.10;;;;;;;20.87;47.73;99908.03;5039338;28;20032;-56
2022/06/13 09:58:05;;;;;;;11.07;3.38;;;;;;;20.95;47.13;99908.47;5036482;28;20082;-56
2022/06/13 10:00:45;;;;;;;13.32;3.97;;;;;;;21.56;44.52;99902.06;5049036;28;20534;-55
2022/06/13 10:03:30;;;;;;;8.82;3.42;;;;;;;23.78;40.94;99914.28;5067231;28;20647;-55
2022/06/13 10:06:14;;;;;;;15.43;3.70;;;;;;;24.37;39.03;99899.56;5067874;28;20040;-56
2022/06/13 10:08:48;;;;;;;12.40;3.40;;;;;;;25.06;38.68;99899.69;5048433;28;20139;-56
2022/06/13 10:11:23;;;;;;;10.30;3.20;;;;;;;25.45;38.22;99897.09;5068259;28;20030;-58
2022/06/13 10:14:06;;;;;;;10.30;3.67;;;;;;;25.73;36.53;99892.00;5044009;28;20039;-57
2022/06/13 10:16:44;;;;;;;10.93;3.25;;;;;;;26.03;37.24;99887.41;5048334;28;20028;-56
2022/06/13 10:19:16;;;;;;;7.68;3.15;;;;;;;23.29;39.83;99891.47;5067297;28;20265;-57
2022/06/13 10:21:49;;;;;;;12.77;3.75;;;;;;;22.65;43.50;99888.00;5068543;28;20108;-56
2022/06/13 10:24:57;;;;;;;17.25;4.13;;;;;;;21.68;44.85;99902.41;5049142;28;20095;-56
2022/06/13 10:27:46;;;;;;;19.27;4.43;;;;;;;21.33;45.64;99904.59;5056685;28;20042;-57
2022/06/13 10:30:31;;;;;;;15.07;4.20;;;;;;;21.11;45.50;99907.13;5036710;28;20059;-56
2022/06/13 10:33:28;;;;;;;10.48;3.90;;;;;;;20.65;46.90;99905.06;5034819;28;20418;-55
2022/06/13 10:36:17;;;;;;;21.52;4.70;;;;;;;20.09;47.36;99903.78;5064838;28;20044;-56
2022/06/13 10:38:49;;;;;;;19.20;4.38;;;;;;;20.73;45.75;99900.88;5066088;28;20050;-56
2022/06/13 10:41:14;;;;;;;26.23;5.88;;;;;;;20.97;46.13;99901.63;5035012;28;20297;-56
2022/06/13 10:43:42;;;;;;;16.63;4.65;;;;;;;20.84;48.01;99892.28;5047461;28;20471;-56
2022/06/13 10:46:08;;;;;;;26.02;5.75;;;;;;;21.56;45.91;99904.00;5048984;28;20129;-56
2022/06/13 10:48:40;;;;;;;17.75;5.10;;;;;;;22.77;43.83;99910.94;5037135;28;20039;-56
2022/06/13 10:51:05;;;;;;;21.40;4.90;;;;;;;23.08;41.39;99907.53;5068226;28;20348;-56
2022/06/13 10:53:35;;;;;;;13.00;4.10;;;;;;;22.43;42.34;99905.13;5068344;28;20031;-55
2022/06/13 10:56:02;;;;;;;24.90;4.75;;;;;;;21.73;42.41;99913.22;5065824;28;20067;-55
2022/06/13 10:58:34;;;;;;;15.75;4.32;;;;;;;21.16;42.81;99907.03;5067037;28;20024;-54
2022/06/13 11:01:10;;;;;;;18.58;4.40;;;;;;;20.82;43.64;99907.31;5068310;28;20379;-57
2022/06/13 11:03:37;;;;;;;23.88;5.38;;;;;;;20.60;43.99;99913.31;5066863;28;20560;-55
2022/06/13 11:06:04;;;;;;;29.33;4.50;;;;;;;21.42;42.40;99912.94;5066175;28;20379;-56
2022/06/13 11:08:30;;;;;;;18.73;4.28;;;;;;;21.79;41.77;99915.84;5031471;28;20037;-57
2022/06/13 11:11:00;;;;;;;19.15;4.18;;;;;;;21.72;40.46;99905.34;5067117;28;20539;-57
2022/06/13 11:13:32;;;;;;;15.35;4.15;;;;;;;21.09;41.26;99917.50;5066546;28;20021;-56
2022/06/13 11:24:42;;;;;;;15.95;4.65;;;;;;;22.30;39.83;99918.47;5052391;28;20099;-54
2022/06/13 11:30:27;;;;;;;17.17;4.32;;;;;;;22.87;41.17;99922.75;5038641;28;20057;-56
2022/06/13 11:33:06;;;;;;;20.20;4.88;;;;;;;22.03;42.62;99924.69;5045563;28;20032;-56
2022/06/13 11:35:31;;;;;;;14.07;4.03;;;;;;;21.29;43.07;99917.22;5060118;28;20039;-55
2022/06/13 11:38:26;;;;;;;14.15;4.65;;;;;;;23.01;40.74;99929.84;5065115;28;20024;-56
2022/06/13 11:41:03;;;;;;;21.95;4.90;;;;;;;23.04;40.03;99923.75;5037409;28;20064;-56
2022/06/13 11:43:48;;;;;;;14.88;4.18;;;;;;;23.18;40.23;99928.34;5043552;28;20020;-56
2022/06/13 11:46:36;;;;;;;16.48;4.45;;;;;;;22.22;42.05;99921.13;5031087;28;20059;-56
2022/06/13 11:49:13;;;;;;;12.55;4.30;;;;;;;22.00;41.25;99930.75;5052784;28;20035;-55
2022/06/13 11:51:56;;;;;;;15.50;4.38;;;;;;;22.23;40.29;99925.44;5065895;28;20037;-56
2022/06/13 11:54:35;;;;;;;75.03;7.03;;;;;;;22.50;38.91;99933.63;5032841;28;20032;-57
2022/06/13 11:57:17;;;;;;;10.68;3.58;;;;;;;22.67;37.98;99926.75;5035151;28;20082;-56
2022/06/13 11:59:49;;;;;;;10.90;3.80;;;;;;;22.97;37.66;99931.56;5061073;28;20024;-56
2022/06/13 12:02:19;;;;;;;14.32;4.07;;;;;;;23.31;38.74;99927.47;5056990;28;20244;-56
2022/06/13 12:04:46;;;;;;;11.68;4.35;;;;;;;23.35;37.76;99927.69;5066127;28;20482;-55
2022/06/13 12:07:30;;;;;;;10.48;4.10;;;;;;;23.67;37.02;99929.34;5067013;28;20035;-56
2022/06/13 12:09:57;;;;;;;14.63;4.50;;;;;;;23.47;36.76;99930.66;5065932;28;20029;-57
2022/06/13 12:12:24;;;;;;;11.63;4.45;;;;;;;22.37;40.00;99926.25;5065036;28;20740;-57